Time;durP1;ratioP1;P1;durP2;ratioP2;P2;SDS_P1;SDS_P2;PMS_P1;PMS_P2;Temp;Humidity;BMP_temperature;BMP_pressure;BME280_temperature;BME280_humidity;BME280_pressure;Samples;Min_cycle;Max_cycle;Signal;HPM_P1;HPM_P2
2021/05/30 00:00:03;;;;;;;10.27;9.18;;;23.50;51.10;;;;;;4815400;54;21525;-35
2021/05/30 00:05:06;;;;;;;10.68;9.05;;;23.50;51.10;;;;;;4823638;54;21042;-34
2021/05/30 00:10:08;;;;;;;10.57;9.02;;;23.50;51.20;;;;;;4836749;54;20984;-32
2021/05/30 00:15:10;;;;;;;9.90;8.90;;;23.50;51.20;;;;;;4825320;54;20990;-29
2021/05/30 00:20:11;;;;;;;9.63;8.73;;;23.50;51.20;;;;;;4817250;54;21505;-36
2021/05/30 00:25:13;;;;;;;9.88;8.50;;;23.50;51.20;;;;;;4827746;54;21055;-30
2021/05/30 00:30:15;;;;;;;9.70;8.70;;;23.50;51.30;;;;;;4820247;54;21011;-36
2021/05/30 00:35:16;;;;;;;10.50;8.95;;;23.50;51.30;;;;;;4839005;54;21023;-35
2021/05/30 00:40:17;;;;;;;9.77;8.45;;;23.50;51.30;;;;;;4800222;54;21003;-38
2021/05/30 00:45:19;;;;;;;10.40;9.00;;;23.50;51.30;;;;;;4796634;54;21513;-28
2021/05/30 00:50:20;;;;;;;9.85;8.85;;;23.50;51.40;;;;;;4797206;54;21558;-37
2021/05/30 00:55:22;;;;;;;10.55;8.90;;;23.50;51.40;;;;;;4795807;58;21011;-26
2021/05/30 01:00:24;;;;;;;9.10;8.20;;;23.50;51.40;;;;;;4850242;54;22078;-36
2021/05/30 01:05:25;;;;;;;9.32;8.23;;;23.50;51.40;;;;;;4829420;54;21486;-27
2021/05/30 01:10:34;;;;;;;9.52;8.25;;;23.50;51.40;;;;;;4796713;54;20991;-27
2021/05/30 01:15:35;;;;;;;9.52;8.52;;;23.50;51.40;;;;;;4829716;54;21512;-30
2021/05/30 01:20:37;;;;;;;9.75;8.40;;;23.50;51.40;;;;;;4834581;54;21082;-29
2021/05/30 01:25:38;;;;;;;9.95;8.40;;;23.50;51.40;;;;;;4812335;54;21007;-31
2021/05/30 01:30:39;;;;;;;10.70;9.38;;;23.50;51.40;;;;;;4800477;54;21039;-32
2021/05/30 01:35:40;;;;;;;10.85;8.93;;;23.50;51.40;;;;;;4817078;54;21379;-36
2021/05/30 01:40:41;;;;;;;10.13;9.05;;;23.50;51.40;;;;;;4810023;54;21006;-34
2021/05/30 01:45:42;;;;;;;10.38;9.02;;;23.50;51.50;;;;;;4801362;54;21023;-31
2021/05/30 01:50:47;;;;;;;9.75;8.57;;;23.50;51.50;;;;;;4808513;54;21027;-37
2021/05/30 02:01:50;;;;;;;9.27;8.38;;;23.50;51.60;;;;;;4807662;54;21134;-26
2021/05/30 02:06:51;;;;;;;10.00;8.85;;;23.50;51.60;;;;;;4850943;54;21058;-36
2021/05/30 02:11:53;;;;;;;11.02;8.65;;;23.50;51.60;;;;;;4857936;54;20988;-27
2021/05/30 02:16:54;;;;;;;9.85;8.85;;;23.50;51.60;;;;;;4797912;54;21059;-31
2021/05/30 02:21:55;;;;;;;10.80;9.27;;;23.60;51.70;;;;;;4796743;54;21063;-29
2021/05/30 02:26:55;;;;;;;10.57;8.70;;;23.50;51.70;;;;;;4802312;54;21007;-27
2021/05/30 02:31:56;;;;;;;9.57;8.45;;;23.50;51.70;;;;;;4794722;55;22024;-35
2021/05/30 02:36:57;;;;;;;11.27;9.55;;;23.50;51.80;;;;;;4797882;54;21054;-35
2021/05/30 02:41:58;;;;;;;12.95;9.48;;;23.50;51.80;;;;;;4828462;54;20991;-36
2021/05/30 02:46:59;;;;;;;9.98;8.77;;;23.50;51.80;;;;;;4856582;54;21056;-32
2021/05/30 02:52:01;;;;;;;10.80;9.27;;;23.40;51.70;;;;;;4798730;54;21054;-30
2021/05/30 02:57:03;;;;;;;11.10;9.52;;;23.50;51.80;;;;;;4802717;54;21446;-34
2021/05/30 03:02:04;;;;;;;11.88;9.75;;;23.50;51.80;;;;;;4855072;54;21036;-21
2021/05/30 03:07:05;;;;;;;13.10;10.68;;;23.50;51.80;;;;;;4800708;54;21011;-28
2021/05/30 03:12:06;;;;;;;12.52;9.88;;;23.50;51.90;;;;;;4828819;54;21051;-33
2021/05/30 03:17:07;;;;;;;12.88;9.93;;;23.40;51.80;;;;;;4837791;54;20991;-35
2021/05/30 03:22:08;;;;;;;13.52;10.32;;;23.40;51.80;;;;;;4795049;58;21039;-36
2021/05/30 03:27:09;;;;;;;11.77;10.13;;;23.40;51.90;;;;;;4801818;54;21101;-30
2021/05/30 03:32:10;;;;;;;12.63;9.77;;;23.50;51.90;;;;;;4794860;58;21080;-36
2021/05/30 03:37:10;;;;;;;11.43;9.32;;;23.50;52.00;;;;;;4800746;54;20996;-35
2021/05/30 03:42:21;;;;;;;11.63;9.93;;;23.50;51.90;;;;;;4804504;54;21039;-33
2021/05/30 03:47:22;;;;;;;12.07;9.60;;;23.40;51.90;;;;;;4842298;54;21505;-31
2021/05/30 03:52:22;;;;;;;12.73;9.88;;;23.40;52.00;;;;;;4825399;54;20995;-27
2021/05/30 03:57:23;;;;;;;12.48;10.18;;;23.50;52.00;;;;;;4794902;58;21051;-32
2021/05/30 04:02:24;;;;;;;11.82;10.05;;;23.50;52.00;;;;;;4836081;54;20975;-33
2021/05/30 04:07:25;;;;;;;12.13;10.57;;;23.40;52.00;;;;;;4841814;54;20999;-33
2021/05/30 04:12:26;;;;;;;12.73;9.85;;;23.40;52.00;;;;;;4811530;54;21474;-26
2021/05/30 04:17:26;;;;;;;12.65;10.43;;;23.40;52.00;;;;;;4818628;54;21031;-25
2021/05/30 04:22:27;;;;;;;13.13;10.13;;;23.40;52.00;;;;;;4810246;54;21050;-30
2021/05/30 04:27:28;;;;;;;13.50;10.15;;;23.40;52.00;;;;;;4803156;54;21141;-25
2021/05/30 04:32:29;;;;;;;12.40;10.25;;;23.40;52.10;;;;;;4818732;54;21099;-24
2021/05/30 04:37:30;;;;;;;13.43;10.93;;;23.40;52.00;;;;;;4806075;54;20991;-26
2021/05/30 04:42:33;;;;;;;13.00;10.48;;;23.40;52.00;;;;;;4827065;54;21004;-25
2021/05/30 04:47:34;;;;;;;14.60;10.80;;;23.40;52.00;;;;;;4817636;54;20996;-28
2021/05/30 04:52:34;;;;;;;15.25;11.18;;;23.40;52.00;;;;;;4816734;54;21012;-32
2021/05/30 04:57:35;;;;;;;14.30;10.70;;;23.40;52.00;;;;;;4809575;54;20995;-30
2021/05/30 05:02:36;;;;;;;13.68;10.90;;;23.40;52.00;;;;;;4828769;54;21098;-27
2021/05/30 05:07:41;;;;;;;14.20;10.90;;;23.50;52.10;;;;;;4812682;54;21015;-21
2021/05/30 05:12:42;;;;;;;14.05;11.40;;;23.40;52.00;;;;;;4796212;55;22242;-32
2021/05/30 05:17:43;;;;;;;16.00;11.88;;;23.40;52.00;;;;;;4864253;54;21007;-29
2021/05/30 05:22:43;;;;;;;15.57;12.00;;;23.40;52.00;;;;;;4803919;54;21106;-36
2021/05/30 05:27:45;;;;;;;15.70;12.40;;;23.40;52.00;;;;;;4794700;58;21015;-36
2021/05/30 05:32:46;;;;;;;16.23;12.05;;;23.40;52.10;;;;;;4794019;58;22060;-33
2021/05/30 05:37:47;;;;;;;14.95;11.30;;;23.40;52.10;;;;;;4798925;54;21014;-26
2021/05/30 05:42:48;;;;;;;15.98;12.05;;;23.40;52.10;;;;;;4826541;54;20999;-23
2021/05/30 05:47:50;;;;;;;15.90;12.07;;;23.40;52.10;;;;;;4812127;54;21095;-32
2021/05/30 05:52:54;;;;;;;15.63;12.63;;;23.40;52.10;;;;;;4805003;54;21077;-25
2021/05/30 05:57:55;;;;;;;14.95;11.77;;;23.40;52.10;;;;;;4813992;54;21063;-35
2021/05/30 06:02:56;;;;;;;16.00;12.15;;;23.40;52.10;;;;;;4794830;55;21426;-25
2021/05/30 06:07:57;;;;;;;17.67;12.77;;;23.40;52.10;;;;;;4794315;58;21562;-30
2021/05/30 06:13:04;;;;;;;17.92;12.57;;;23.40;52.10;;;;;;4807629;54;21066;-29
2021/05/30 06:18:10;;;;;;;19.40;14.35;;;23.40;52.10;;;;;;4809781;54;21540;-29
2021/05/30 06:23:12;;;;;;;17.73;13.05;;;23.40;52.10;;;;;;4815172;54;21573;-32
2021/05/30 06:28:13;;;;;;;16.62;13.07;;;23.40;52.10;;;;;;4813951;54;21019;-31
2021/05/30 06:33:14;;;;;;;17.60;13.20;;;23.40;52.10;;;;;;4815695;54;21280;-34
2021/05/30 06:38:15;;;;;;;17.12;13.35;;;23.40;52.20;;;;;;4869728;54;21097;-32
2021/05/30 06:43:15;;;;;;;18.58;13.88;;;23.40;52.10;;;;;;4798036;54;21007;-32
2021/05/30 06:48:19;;;;;;;20.80;14.48;;;23.40;52.20;;;;;;4817220;54;21042;-33
2021/05/30 06:53:20;;;;;;;20.62;14.10;;;23.40;52.10;;;;;;4795200;58;21695;-26
2021/05/30 06:58:21;;;;;;;19.50;14.63;;;23.40;52.20;;;;;;4818859;54;21136;-36
2021/05/30 07:03:22;;;;;;;21.27;15.38;;;23.40;52.10;;;;;;4813418;54;22200;-34
2021/05/30 07:08:23;;;;;;;22.87;16.27;;;23.40;52.10;;;;;;4794491;58;21078;-28
2021/05/30 07:13:23;;;;;;;23.02;16.20;;;23.40;52.10;;;;;;4820121;54;21478;-37
2021/05/30 07:18:24;;;;;;;23.15;16.83;;;23.40;52.10;;;;;;4892886;54;21453;-37
2021/05/30 07:23:26;;;;;;;23.45;17.42;;;23.40;52.10;;;;;;4841534;54;21051;-34
2021/05/30 07:28:27;;;;;;;23.70;16.02;;;23.40;52.10;;;;;;4814321;54;21086;-36
2021/05/30 07:33:28;;;;;;;26.37;18.92;;;23.40;52.10;;;;;;4874022;54;20979;-33
2021/05/30 07:38:28;;;;;;;27.17;18.55;;;23.40;52.10;;;;;;4795155;55;20995;-34
2021/05/30 07:43:29;;;;;;;24.75;17.42;;;23.30;52.00;;;;;;4845377;54;21023;-35
2021/05/30 07:48:30;;;;;;;26.48;18.92;;;23.40;52.10;;;;;;4796458;54;21063;-35
2021/05/30 07:53:33;;;;;;;27.13;19.25;;;23.40;52.10;;;;;;4856186;54;21034;-33
2021/05/30 07:58:34;;;;;;;26.83;18.87;;;23.40;52.10;;;;;;4815348;54;22272;-36
2021/05/30 08:03:35;;;;;;;27.33;20.25;;;23.40;52.10;;;;;;4811420;54;22092;-33
2021/05/30 08:08:36;;;;;;;27.98;19.20;;;23.40;52.10;;;;;;4798583;54;21131;-29
2021/05/30 08:13:38;;;;;;;28.75;20.58;;;23.30;52.00;;;;;;4803456;54;21098;-36
2021/05/30 08:18:39;;;;;;;29.40;21.00;;;23.40;52.10;;;;;;4820928;54;22009;-35
2021/05/30 08:23:42;;;;;;;28.12;21.17;;;23.40;52.10;;;;;;4839628;54;21018;-25
2021/05/30 08:28:42;;;;;;;27.92;20.75;;;23.40;52.10;;;;;;4826312;54;21110;-34
2021/05/30 08:33:43;;;;;;;29.15;20.17;;;23.40;52.10;;;;;;4795148;58;21011;-33
2021/05/30 08:38:44;;;;;;;28.65;20.10;;;23.30;52.10;;;;;;4835820;54;21062;-27
2021/05/30 08:43:45;;;;;;;31.40;21.55;;;23.40;52.00;;;;;;4812601;54;21078;-36
2021/05/30 08:48:46;;;;;;;31.17;21.95;;;23.40;52.10;;;;;;4795103;55;21888;-35
2021/05/30 08:53:46;;;;;;;32.05;22.10;;;23.40;52.10;;;;;;4799210;54;21406;-34
2021/05/30 08:58:49;;;;;;;30.73;20.90;;;23.30;52.00;;;;;;4811776;54;21007;-37
2021/05/30 09:04:06;;;;;;;31.37;21.75;;;23.40;52.10;;;;;;4811536;54;21099;-35
2021/05/30 09:09:08;;;;;;;31.20;22.25;;;23.30;52.00;;;;;;4797031;54;21544;-36
2021/05/30 09:14:39;;;;;;;27.70;21.17;;;23.40;52.00;;;;;;4811179;54;21018;-36
2021/05/30 09:19:51;;;;;;;28.52;20.88;;;23.30;52.00;;;;;;4813053;54;21087;-36
2021/05/30 09:25:17;;;;;;;31.83;22.62;;;23.40;52.00;;;;;;4820260;54;20979;-36
2021/05/30 09:30:34;;;;;;;30.55;22.10;;;23.40;52.10;;;;;;4809070;54;21075;-35
2021/05/30 09:35:53;;;;;;;30.77;23.48;;;23.30;52.00;;;;;;4795503;54;21533;-31
2021/05/30 09:41:06;;;;;;;29.70;22.37;;;23.30;52.00;;;;;;4802264;54;21074;-36
2021/05/30 09:46:12;;;;;;;33.63;23.08;;;23.40;52.00;;;;;;4852017;54;20963;-34
2021/05/30 09:51:34;;;;;;;28.47;20.40;;;23.30;51.90;;;;;;4806110;54;21534;-33
2021/05/30 09:56:52;;;;;;;30.70;21.80;;;23.30;51.90;;;;;;4795432;58;21438;-28
2021/05/30 10:02:01;;;;;;;27.55;20.92;;;23.30;51.90;;;;;;4814552;54;21510;-33
2021/05/30 10:07:05;;;;;;;31.62;21.83;;;23.30;51.90;;;;;;4827962;54;21077;-33
2021/05/30 10:12:08;;;;;;;32.20;22.77;;;23.30;51.80;;;;;;4795873;58;21058;-34
2021/05/30 10:17:11;;;;;;;30.52;21.60;;;23.40;52.50;;;;;;4844903;54;21085;-35
2021/05/30 10:22:16;;;;;;;29.50;20.25;;;23.30;51.50;;;;;;4804088;54;20995;-25
2021/05/30 10:27:23;;;;;;;28.38;20.50;;;23.30;51.80;;;;;;4831814;54;20999;-31
2021/05/30 10:32:25;;;;;;;25.77;19.90;;;23.30;51.70;;;;;;4802881;54;21577;-32
2021/05/30 10:37:26;;;;;;;31.10;20.45;;;23.30;51.70;;;;;;4800740;54;21003;-35
2021/05/30 10:42:27;;;;;;;29.70;20.30;;;23.30;51.70;;;;;;4802483;54;21011;-36
2021/05/30 10:49:08;;;;;;;29.77;21.62;;;23.30;51.60;;;;;;4798235;54;21027;-30
2021/05/30 10:54:12;;;;;;;26.48;20.27;;;23.30;51.60;;;;;;4795412;58;21542;-34
2021/05/30 10:59:25;;;;;;;27.17;21.02;;;23.30;51.60;;;;;;4822857;54;21467;-36
2021/05/30 11:04:31;;;;;;;29.63;20.65;;;23.30;51.60;;;;;;4838141;54;21449;-33
2021/05/30 11:16:22;;;;;;;28.25;20.75;;;23.30;51.50;;;;;;4794978;54;21489;-35
2021/05/30 11:21:43;;;;;;;30.62;21.37;;;23.30;51.50;;;;;;4795210;58;21079;-26
2021/05/30 11:27:03;;;;;;;28.27;21.08;;;23.30;51.40;;;;;;4799701;54;21498;-33
2021/05/30 11:32:06;;;;;;;31.95;21.25;;;23.30;51.40;;;;;;4794121;58;21250;-23
2021/05/30 11:37:12;;;;;;;34.50;22.27;;;23.30;51.30;;;;;;4803174;54;21553;-37
2021/05/30 11:42:12;;;;;;;29.23;22.25;;;23.30;51.30;;;;;;4795620;58;21003;-34
2021/05/30 11:47:13;;;;;;;28.15;20.70;;;23.30;51.30;;;;;;4814009;54;21015;-31
2021/05/30 11:52:18;;;;;;;29.60;20.95;;;23.30;51.30;;;;;;4796669;54;21553;-24
2021/05/30 11:57:28;;;;;;;29.05;20.40;;;23.30;51.30;;;;;;4811316;54;20999;-35
2021/05/30 12:02:37;;;;;;;30.08;20.92;;;23.30;51.30;;;;;;4794995;56;21547;-36
2021/05/30 12:07:38;;;;;;;29.90;21.17;;;23.30;51.30;;;;;;4794598;58;21549;-34
2021/05/30 12:12:44;;;;;;;29.33;20.45;;;23.30;51.30;;;;;;4800376;54;21003;-37
2021/05/30 12:18:18;;;;;;;30.23;21.70;;;23.30;51.30;;;;;;4810815;54;21002;-27
2021/05/30 12:23:21;;;;;;;27.25;20.08;;;23.30;51.30;;;;;;4796014;55;21442;-35
2021/05/30 12:28:34;;;;;;;24.83;19.23;;;23.30;51.30;;;;;;4802403;54;21016;-34
2021/05/30 12:34:01;;;;;;;30.08;20.80;;;23.30;51.30;;;;;;4810043;54;21106;-27
2021/05/30 12:39:24;;;;;;;28.62;19.55;;;23.30;51.30;;;;;;4819245;54;21568;-28
2021/05/30 12:44:35;;;;;;;28.27;21.05;;;23.30;51.40;;;;;;4859875;54;21085;-32
2021/05/30 12:49:37;;;;;;;28.12;19.92;;;23.30;51.30;;;;;;4833564;54;21007;-26
2021/05/30 12:54:38;;;;;;;29.00;20.23;;;23.30;51.30;;;;;;4816777;54;21490;-30
2021/05/30 12:59:48;;;;;;;28.05;19.12;;;23.30;51.30;;;;;;4815315;54;21493;-33
2021/05/30 13:04:49;;;;;;;28.00;20.45;;;23.30;51.30;;;;;;4820972;54;21481;-37
2021/05/30 13:09:53;;;;;;;27.90;20.70;;;23.30;51.40;;;;;;4811449;54;21007;-37
2021/05/30 13:15:54;;;;;;;27.27;19.58;;;23.30;51.30;;;;;;4824151;54;21481;-35
2021/05/30 13:20:57;;;;;;;28.17;19.95;;;23.30;51.30;;;;;;4797993;54;21052;-35
2021/05/30 13:26:12;;;;;;;28.98;21.08;;;23.30;51.20;;;;;;4853835;54;21865;-35
2021/05/30 13:31:15;;;;;;;28.30;20.88;;;23.30;51.20;;;;;;4846175;54;21180;-32
2021/05/30 13:36:18;;;;;;;28.35;20.52;;;23.30;51.20;;;;;;4808364;54;22172;-36
2021/05/30 13:41:23;;;;;;;26.42;20.17;;;23.30;51.20;;;;;;4850571;54;20999;-29
2021/05/30 13:46:26;;;;;;;28.85;20.75;;;23.30;51.20;;;;;;4829184;54;22049;-34
2021/05/30 13:51:29;;;;;;;26.67;20.67;;;23.30;51.20;;;;;;4856302;54;21540;-37
2021/05/30 13:56:30;;;;;;;26.48;19.48;;;23.30;51.20;;;;;;4795246;58;21457;-33
2021/05/30 14:01:30;;;;;;;28.55;20.65;;;23.30;51.20;;;;;;4806695;54;21047;-36
2021/05/30 14:06:31;;;;;;;28.10;20.12;;;23.30;51.10;;;;;;4798823;54;21473;-36
2021/05/30 14:11:32;;;;;;;27.52;20.98;;;23.30;51.10;;;;;;4797265;54;21059;-27
2021/05/30 14:16:34;;;;;;;28.95;21.40;;;23.30;51.20;;;;;;4864115;54;21129;-30
2021/05/30 14:21:35;;;;;;;28.23;20.95;;;23.30;51.10;;;;;;4811987;54;21549;-37
2021/05/30 14:26:36;;;;;;;27.00;21.42;;;23.30;51.10;;;;;;4806605;54;21474;-33
2021/05/30 14:31:37;;;;;;;28.20;22.55;;;23.30;51.10;;;;;;4808805;54;21055;-35
2021/05/30 14:36:38;;;;;;;26.60;20.67;;;23.30;51.10;;;;;;4822027;54;21011;-41
2021/05/30 14:41:39;;;;;;;26.55;20.65;;;23.30;51.10;;;;;;4797426;54;21466;-33
2021/05/30 14:46:40;;;;;;;27.80;21.33;;;23.30;51.10;;;;;;4814176;54;21478;-33
2021/05/30 14:51:41;;;;;;;27.98;21.17;;;23.30;51.10;;;;;;4806221;54;21079;-35
2021/05/30 14:56:42;;;;;;;25.10;19.52;;;23.30;51.10;;;;;;4814034;54;21007;-31
2021/05/30 15:01:43;;;;;;;25.60;20.37;;;23.30;51.10;;;;;;4828083;54;21078;-32
2021/05/30 15:06:47;;;;;;;24.50;19.17;;;23.30;51.20;;;;;;4806270;54;21073;-34
2021/05/30 15:11:48;;;;;;;29.58;20.70;;;23.30;51.10;;;;;;4818750;54;21003;-35
2021/05/30 15:16:49;;;;;;;27.85;21.73;;;23.30;51.10;;;;;;4810023;54;21003;-32
2021/05/30 15:21:50;;;;;;;26.60;21.02;;;23.30;51.20;;;;;;4869962;54;21000;-24
2021/05/30 15:26:52;;;;;;;25.48;21.17;;;23.30;51.10;;;;;;4795294;55;21537;-33
2021/05/30 15:31:54;;;;;;;25.90;20.73;;;23.30;51.10;;;;;;4829528;54;21506;-36
2021/05/30 15:36:55;;;;;;;27.00;21.90;;;23.30;51.10;;;;;;4837232;54;21600;-36
2021/05/30 15:41:56;;;;;;;27.05;20.85;;;23.30;51.20;;;;;;4824759;54;20987;-34
2021/05/30 15:46:57;;;;;;;26.08;20.62;;;23.30;51.10;;;;;;4798230;54;21066;-26
2021/05/30 15:51:58;;;;;;;25.08;20.83;;;23.30;51.10;;;;;;4797949;54;21126;-35
2021/05/30 15:56:59;;;;;;;27.35;20.80;;;23.30;51.10;;;;;;4799076;54;21065;-35
2021/05/30 16:02:00;;;;;;;25.05;19.85;;;23.30;51.20;;;;;;4795452;58;21039;-37
2021/05/30 16:07:00;;;;;;;24.25;19.40;;;23.30;51.10;;;;;;4794877;58;21015;-37
2021/05/30 16:12:03;;;;;;;25.77;19.80;;;23.30;51.00;;;;;;4838080;54;20999;-36
2021/05/30 16:17:04;;;;;;;23.75;19.40;;;23.30;51.10;;;;;;4798861;54;21071;-36
2021/05/30 16:22:05;;;;;;;23.60;19.12;;;23.30;51.00;;;;;;4851482;54;21125;-36
2021/05/30 16:27:06;;;;;;;21.80;18.50;;;23.30;51.50;;;;;;4820795;54;21100;-34
2021/05/30 16:32:10;;;;;;;23.17;19.00;;;23.30;51.00;;;;;;4798022;54;21097;-34
2021/05/30 16:37:10;;;;;;;22.83;17.90;;;23.30;51.10;;;;;;4840747;54;21458;-27
2021/05/30 16:42:12;;;;;;;24.15;18.62;;;23.30;51.00;;;;;;4818829;54;21056;-35
2021/05/30 16:47:13;;;;;;;23.60;17.92;;;23.30;51.00;;;;;;4823326;54;21644;-26
2021/05/30 16:52:17;;;;;;;23.80;18.27;;;23.30;51.00;;;;;;4808027;54;21063;-37
2021/05/30 16:57:18;;;;;;;22.55;17.00;;;23.30;50.90;;;;;;4802063;54;21071;-28
2021/05/30 17:02:19;;;;;;;24.02;17.83;;;23.30;50.90;;;;;;4872654;54;21075;-28
2021/05/30 17:07:21;;;;;;;22.90;17.85;;;23.30;51.00;;;;;;4842373;54;21055;-32
2021/05/30 17:12:21;;;;;;;20.20;16.42;;;23.30;51.10;;;;;;4814652;54;21031;-32
2021/05/30 17:17:22;;;;;;;22.50;17.17;;;23.30;51.00;;;;;;4818380;54;21067;-36
2021/05/30 17:22:23;;;;;;;22.80;18.17;;;23.30;51.00;;;;;;4809984;54;21007;-35
2021/05/30 17:27:24;;;;;;;21.05;16.65;;;23.30;51.10;;;;;;4810186;54;21498;-27
2021/05/30 17:32:25;;;;;;;18.52;16.20;;;23.30;51.50;;;;;;4818766;54;21060;-32
2021/05/30 17:37:26;;;;;;;19.23;16.77;;;23.20;51.00;;;;;;4809705;54;21612;-34
2021/05/30 17:42:27;;;;;;;18.48;16.37;;;23.30;51.10;;;;;;4848583;54;21110;-28
2021/05/30 17:47:28;;;;;;;20.33;16.60;;;23.20;51.00;;;;;;4795121;58;21094;-31
2021/05/30 17:52:29;;;;;;;19.90;16.33;;;23.30;51.10;;;;;;4819355;54;21015;-26
2021/05/30 17:57:30;;;;;;;20.33;16.40;;;23.20;51.00;;;;;;4795006;58;21577;-24
2021/05/30 18:02:30;;;;;;;19.30;15.45;;;23.30;51.80;;;;;;4860388;54;20995;-25
2021/05/30 18:07:36;;;;;;;18.25;15.50;;;23.20;51.00;;;;;;4794730;58;21103;-19
2021/05/30 18:12:39;;;;;;;18.17;15.65;;;23.30;51.10;;;;;;4820717;54;21499;-21
2021/05/30 18:17:40;;;;;;;20.95;15.77;;;23.30;51.10;;;;;;4809707;54;21510;-36
2021/05/30 18:22:41;;;;;;;20.55;16.37;;;23.30;51.10;;;;;;4827704;54;21043;-26
2021/05/30 18:27:42;;;;;;;18.23;15.07;;;23.30;51.10;;;;;;4835793;54;21090;-36
2021/05/30 18:32:42;;;;;;;18.62;14.98;;;23.30;51.10;;;;;;4794326;58;21031;-30
2021/05/30 18:37:44;;;;;;;18.42;16.15;;;23.30;51.20;;;;;;4794974;58;21011;-33
2021/05/30 18:42:45;;;;;;;17.23;15.23;;;23.20;51.00;;;;;;4845996;54;21023;-45
2021/05/30 18:47:47;;;;;;;18.00;15.52;;;23.30;51.10;;;;;;4876404;54;21011;-30
2021/05/30 18:52:48;;;;;;;17.42;14.77;;;23.30;51.10;;;;;;4834313;54;21047;-29
2021/05/30 18:57:49;;;;;;;17.90;14.65;;;23.30;51.10;;;;;;4808679;54;21474;-35
2021/05/30 19:02:51;;;;;;;19.08;14.98;;;23.30;51.20;;;;;;4834626;54;20992;-31
2021/05/30 19:07:52;;;;;;;17.02;14.57;;;23.20;51.20;;;;;;4808981;54;21470;-24
2021/05/30 19:12:52;;;;;;;18.55;14.52;;;23.20;51.20;;;;;;4841467;54;21119;-34
2021/05/30 19:17:53;;;;;;;16.75;14.73;;;23.30;51.30;;;;;;4831438;54;21519;-25
2021/05/30 19:22:54;;;;;;;16.12;14.15;;;23.20;51.30;;;;;;4800977;54;21007;-21
2021/05/30 19:27:55;;;;;;;17.52;15.02;;;23.20;51.30;;;;;;4809536;54;21007;-35
2021/05/30 19:32:56;;;;;;;18.10;14.50;;;23.20;51.30;;;;;;4794057;55;21055;-36
2021/05/30 19:37:57;;;;;;;18.45;14.52;;;23.30;51.40;;;;;;4801506;54;21007;-22
2021/05/30 19:42:57;;;;;;;16.85;14.55;;;23.20;51.30;;;;;;4837019;54;21011;-33
2021/05/30 19:47:58;;;;;;;16.12;13.98;;;23.20;51.30;;;;;;4870582;54;21090;-35
2021/05/30 19:52:59;;;;;;;16.90;14.45;;;23.20;51.30;;;;;;4795579;58;21014;-26
2021/05/30 19:58:00;;;;;;;16.77;14.18;;;23.20;51.40;;;;;;4796062;58;21550;-31
2021/05/30 20:03:01;;;;;;;16.60;14.55;;;23.20;51.40;;;;;;4811838;54;21031;-36
2021/05/30 20:08:03;;;;;;;20.25;15.55;;;23.20;51.40;;;;;;4812667;54;21288;-36
2021/05/30 20:13:08;;;;;;;17.42;14.70;;;23.20;51.40;;;;;;4833345;54;21176;-33
2021/05/30 20:18:09;;;;;;;17.37;14.95;;;23.20;51.40;;;;;;4795230;58;21470;-33
2021/05/30 20:23:10;;;;;;;17.08;14.73;;;23.20;51.40;;;;;;4830735;54;21119;-29
2021/05/30 20:28:22;;;;;;;17.23;13.98;;;23.20;51.40;;;;;;4795145;58;21046;-36
2021/05/30 20:33:24;;;;;;;15.25;13.40;;;23.20;51.40;;;;;;4813105;54;21525;-36
2021/05/30 20:38:26;;;;;;;16.17;13.85;;;23.20;51.40;;;;;;4801279;54;21030;-33
2021/05/30 20:43:27;;;;;;;16.85;13.90;;;23.20;51.40;;;;;;4812090;54;21568;-31
2021/05/30 20:48:28;;;;;;;15.77;14.05;;;23.20;51.50;;;;;;4811015;54;21051;-33
2021/05/30 20:53:29;;;;;;;16.08;13.93;;;23.20;51.40;;;;;;4829118;54;21063;-28
2021/05/30 20:58:29;;;;;;;17.00;14.70;;;23.20;51.50;;;;;;4811714;54;21079;-31
2021/05/30 21:03:30;;;;;;;15.50;13.82;;;23.20;51.50;;;;;;4839296;54;21019;-33
2021/05/30 21:08:31;;;;;;;16.42;13.15;;;23.20;51.50;;;;;;4811897;54;22410;-24
2021/05/30 21:13:32;;;;;;;15.18;13.32;;;23.20;51.50;;;;;;4795083;58;21094;-35
2021/05/30 21:18:33;;;;;;;16.83;14.00;;;23.20;51.50;;;;;;4812378;54;21300;-35
2021/05/30 21:23:38;;;;;;;16.50;13.40;;;23.10;51.50;;;;;;4814245;54;20999;-34
2021/05/30 21:28:39;;;;;;;17.55;13.32;;;23.20;51.50;;;;;;4795227;58;21538;-34
2021/05/30 21:33:39;;;;;;;15.43;13.57;;;23.20;51.60;;;;;;4794619;58;21046;-36
2021/05/30 21:38:40;;;;;;;16.60;14.52;;;23.20;51.60;;;;;;4809076;54;21006;-36
2021/05/30 21:43:41;;;;;;;16.87;13.80;;;23.20;51.60;;;;;;4841000;54;21482;-34
2021/05/30 21:48:42;;;;;;;16.02;13.45;;;23.20;51.60;;;;;;4806547;54;21051;-36
2021/05/30 21:53:43;;;;;;;15.93;13.73;;;23.20;51.60;;;;;;4823526;54;21019;-26
2021/05/30 21:58:44;;;;;;;16.40;13.73;;;23.20;51.70;;;;;;4819995;54;21011;-32
2021/05/30 22:03:46;;;;;;;15.02;13.43;;;23.10;51.60;;;;;;4812109;54;21086;-32
2021/05/30 22:08:48;;;;;;;18.05;14.45;;;23.20;51.60;;;;;;4795729;54;21054;-31
2021/05/30 22:13:48;;;;;;;14.55;12.90;;;23.20;51.60;;;;;;4832316;54;21043;-36
2021/05/30 22:24:09;;;;;;;15.77;13.57;;;23.20;51.70;;;;;;4810621;54;21019;-35
2021/05/30 22:29:10;;;;;;;15.65;13.15;;;23.20;51.70;;;;;;4795169;55;21126;-35
2021/05/30 22:34:11;;;;;;;15.85;13.68;;;23.10;51.60;;;;;;4826421;54;20999;-31
2021/05/30 22:39:12;;;;;;;16.23;13.68;;;23.20;52.30;;;;;;4797577;54;21309;-35
2021/05/30 22:44:13;;;;;;;16.77;13.48;;;23.20;51.70;;;;;;4833752;54;21114;-31
2021/05/30 22:49:15;;;;;;;14.63;12.80;;;23.10;51.70;;;;;;4794865;58;21039;-29
2021/05/30 22:54:17;;;;;;;17.90;12.68;;;23.10;51.70;;;;;;4828904;54;21546;-29
2021/05/30 22:59:17;;;;;;;14.63;12.88;;;23.20;51.80;;;;;;4807176;54;21059;-34
2021/05/30 23:04:18;;;;;;;15.60;13.20;;;23.20;51.80;;;;;;4828754;54;20987;-36
2021/05/30 23:09:19;;;;;;;15.52;12.48;;;23.10;51.70;;;;;;4846317;54;21000;-28
2021/05/30 23:14:20;;;;;;;13.62;12.23;;;23.10;51.70;;;;;;4818282;54;21539;-32
2021/05/30 23:19:21;;;;;;;13.43;12.02;;;23.10;51.70;;;;;;4824859;54;21055;-35
2021/05/30 23:24:22;;;;;;;14.07;11.90;;;23.10;51.70;;;;;;4808445;54;21474;-33
2021/05/30 23:29:23;;;;;;;14.35;12.37;;;23.10;51.80;;;;;;4830970;54;21293;-37
2021/05/30 23:34:24;;;;;;;15.20;13.10;;;23.10;51.70;;;;;;4798019;54;21059;-30
2021/05/30 23:39:25;;;;;;;14.30;12.27;;;23.10;51.70;;;;;;4816497;54;20987;-36
2021/05/30 23:44:26;;;;;;;17.45;12.65;;;23.10;51.70;;;;;;4805490;54;21051;-32
2021/05/30 23:49:27;;;;;;;14.95;12.95;;;23.10;51.70;;;;;;4840343;54;21040;-31
2021/05/30 23:54:27;;;;;;;14.20;12.25;;;23.10;51.80;;;;;;4794743;58;21526;-26
2021/05/30 23:59:28;;;;;;;14.00;12.50;;;23.10;51.80;;;;;;4844659;54;21066;-35
